sensor_id;sensor_type;location;lat;lon;timestamp;P1;durP1;ratioP1;P2;durP2;ratioP2
18445;SDS011;9352;50.888;4.466;2022-09-28T00:00:24;13.52;;;5.30;;
18445;SDS011;9352;50.888;4.466;2022-09-28T00:02:53;7.68;;;4.80;;
18445;SDS011;9352;50.888;4.466;2022-09-28T00:05:21;15.55;;;5.38;;
18445;SDS011;9352;50.888;4.466;2022-09-28T00:07:50;7.20;;;4.75;;
18445;SDS011;9352;50.888;4.466;2022-09-28T00:10:19;9.63;;;4.65;;
18445;SDS011;9352;50.888;4.466;2022-09-28T00:12:47;9.68;;;4.55;;
18445;SDS011;9352;50.888;4.466;2022-09-28T00:15:14;12.73;;;5.70;;
18445;SDS011;9352;50.888;4.466;2022-09-28T00:17:41;15.63;;;7.47;;
18445;SDS011;9352;50.888;4.466;2022-09-28T00:20:09;15.43;;;8.45;;
18445;SDS011;9352;50.888;4.466;2022-09-28T00:22:37;15.10;;;8.65;;
18445;SDS011;9352;50.888;4.466;2022-09-28T00:25:05;21.48;;;8.63;;
18445;SDS011;9352;50.888;4.466;2022-09-28T00:27:34;24.35;;;10.07;;
18445;SDS011;9352;50.888;4.466;2022-09-28T00:30:01;22.70;;;9.25;;
18445;SDS011;9352;50.888;4.466;2022-09-28T00:32:28;19.35;;;9.75;;
18445;SDS011;9352;50.888;4.466;2022-09-28T00:34:55;16.40;;;9.73;;
18445;SDS011;9352;50.888;4.466;2022-09-28T00:37:22;13.90;;;9.80;;
18445;SDS011;9352;50.888;4.466;2022-09-28T00:39:49;11.65;;;9.00;;
18445;SDS011;9352;50.888;4.466;2022-09-28T00:42:16;16.70;;;9.43;;
18445;SDS011;9352;50.888;4.466;2022-09-28T00:44:49;24.35;;;9.55;;
18445;SDS011;9352;50.888;4.466;2022-09-28T00:47:23;18.92;;;8.82;;
18445;SDS011;9352;50.888;4.466;2022-09-28T00:50:06;16.85;;;9.63;;
18445;SDS011;9352;50.888;4.466;2022-09-28T00:52:38;13.98;;;8.00;;
18445;SDS011;9352;50.888;4.466;2022-09-28T00:55:12;16.15;;;8.60;;
18445;SDS011;9352;50.888;4.466;2022-09-28T00:57:41;17.60;;;8.48;;
18445;SDS011;9352;50.888;4.466;2022-09-28T01:00:13;10.10;;;6.60;;
18445;SDS011;9352;50.888;4.466;2022-09-28T01:02:41;10.65;;;7.30;;
18445;SDS011;9352;50.888;4.466;2022-09-28T01:05:08;9.10;;;6.68;;
18445;SDS011;9352;50.888;4.466;2022-09-28T01:07:36;12.48;;;6.80;;
18445;SDS011;9352;50.888;4.466;2022-09-28T01:10:04;10.43;;;6.80;;
18445;SDS011;9352;50.888;4.466;2022-09-28T01:12:32;8.70;;;6.72;;
18445;SDS011;9352;50.888;4.466;2022-09-28T01:14:59;13.07;;;6.82;;
18445;SDS011;9352;50.888;4.466;2022-09-28T01:17:31;9.07;;;6.25;;
18445;SDS011;9352;50.888;4.466;2022-09-28T01:20:23;11.07;;;6.43;;
18445;SDS011;9352;50.888;4.466;2022-09-28T01:29:10;11.88;;;5.93;;
18445;SDS011;9352;50.888;4.466;2022-09-28T01:31:43;12.40;;;6.25;;
18445;SDS011;9352;50.888;4.466;2022-09-28T01:34:14;10.65;;;6.30;;
18445;SDS011;9352;50.888;4.466;2022-09-28T01:36:47;11.75;;;6.38;;
18445;SDS011;9352;50.888;4.466;2022-09-28T01:39:18;12.10;;;5.63;;
18445;SDS011;9352;50.888;4.466;2022-09-28T01:41:53;12.50;;;5.45;;
18445;SDS011;9352;50.888;4.466;2022-09-28T01:44:22;9.75;;;5.80;;
18445;SDS011;9352;50.888;4.466;2022-09-28T01:46:52;10.98;;;5.70;;
18445;SDS011;9352;50.888;4.466;2022-09-28T01:49:19;11.77;;;5.32;;
18445;SDS011;9352;50.888;4.466;2022-09-28T01:51:50;7.22;;;4.93;;
18445;SDS011;9352;50.888;4.466;2022-09-28T01:54:25;10.10;;;5.35;;
18445;SDS011;9352;50.888;4.466;2022-09-28T01:56:59;8.27;;;5.10;;
18445;SDS011;9352;50.888;4.466;2022-09-28T01:59:33;11.15;;;5.00;;
18445;SDS011;9352;50.888;4.466;2022-09-28T02:02:04;10.10;;;5.30;;
18445;SDS011;9352;50.888;4.466;2022-09-28T02:04:35;11.73;;;5.40;;
18445;SDS011;9352;50.888;4.466;2022-09-28T02:07:07;9.13;;;4.85;;
18445;SDS011;9352;50.888;4.466;2022-09-28T02:09:39;10.57;;;4.85;;
18445;SDS011;9352;50.888;4.466;2022-09-28T02:12:13;10.90;;;5.00;;
18445;SDS011;9352;50.888;4.466;2022-09-28T02:14:45;11.73;;;5.78;;
18445;SDS011;9352;50.888;4.466;2022-09-28T02:17:14;14.15;;;5.70;;
18445;SDS011;9352;50.888;4.466;2022-09-28T02:19:41;11.38;;;6.03;;
18445;SDS011;9352;50.888;4.466;2022-09-28T02:22:11;10.75;;;6.32;;
18445;SDS011;9352;50.888;4.466;2022-09-28T02:24:49;13.63;;;6.50;;
18445;SDS011;9352;50.888;4.466;2022-09-28T02:27:23;9.52;;;5.85;;
18445;SDS011;9352;50.888;4.466;2022-09-28T02:29:57;11.00;;;6.03;;
18445;SDS011;9352;50.888;4.466;2022-09-28T02:32:23;13.65;;;5.90;;
18445;SDS011;9352;50.888;4.466;2022-09-28T02:34:53;12.80;;;5.85;;
18445;SDS011;9352;50.888;4.466;2022-09-28T02:37:20;9.18;;;5.47;;
18445;SDS011;9352;50.888;4.466;2022-09-28T02:39:47;11.88;;;6.15;;
18445;SDS011;9352;50.888;4.466;2022-09-28T02:42:15;12.48;;;6.15;;
18445;SDS011;9352;50.888;4.466;2022-09-28T02:45:02;9.98;;;5.53;;
18445;SDS011;9352;50.888;4.466;2022-09-28T02:47:49;9.18;;;5.35;;
18445;SDS011;9352;50.888;4.466;2022-09-28T02:50:28;12.27;;;4.90;;
18445;SDS011;9352;50.888;4.466;2022-09-28T02:53:07;8.18;;;4.30;;
18445;SDS011;9352;50.888;4.466;2022-09-28T02:55:50;7.43;;;4.40;;
18445;SDS011;9352;50.888;4.466;2022-09-28T02:58:30;9.80;;;4.60;;
18445;SDS011;9352;50.888;4.466;2022-09-28T03:01:06;8.40;;;4.65;;
18445;SDS011;9352;50.888;4.466;2022-09-28T03:03:44;12.43;;;4.95;;
18445;SDS011;9352;50.888;4.466;2022-09-28T03:06:17;7.32;;;4.18;;
18445;SDS011;9352;50.888;4.466;2022-09-28T03:08:49;8.43;;;4.50;;
18445;SDS011;9352;50.888;4.466;2022-09-28T03:11:23;6.05;;;4.28;;
18445;SDS011;9352;50.888;4.466;2022-09-28T03:13:54;14.52;;;4.15;;
18445;SDS011;9352;50.888;4.466;2022-09-28T03:16:23;11.23;;;4.28;;
18445;SDS011;9352;50.888;4.466;2022-09-28T03:18:51;5.75;;;3.95;;
18445;SDS011;9352;50.888;4.466;2022-09-28T03:21:18;6.03;;;3.65;;
18445;SDS011;9352;50.888;4.466;2022-09-28T03:23:45;6.68;;;3.88;;
18445;SDS011;9352;50.888;4.466;2022-09-28T03:26:12;4.53;;;3.08;;
18445;SDS011;9352;50.888;4.466;2022-09-28T03:28:41;4.22;;;3.20;;
18445;SDS011;9352;50.888;4.466;2022-09-28T03:31:08;8.52;;;3.75;;
18445;SDS011;9352;50.888;4.466;2022-09-28T03:33:36;3.92;;;2.63;;
18445;SDS011;9352;50.888;4.466;2022-09-28T03:36:03;8.55;;;2.60;;
18445;SDS011;9352;50.888;4.466;2022-09-28T03:38:32;6.97;;;3.30;;
18445;SDS011;9352;50.888;4.466;2022-09-28T03:41:00;5.43;;;2.88;;
18445;SDS011;9352;50.888;4.466;2022-09-28T03:43:27;6.85;;;3.30;;
18445;SDS011;9352;50.888;4.466;2022-09-28T03:45:56;7.85;;;2.85;;
18445;SDS011;9352;50.888;4.466;2022-09-28T03:48:25;6.05;;;3.10;;
18445;SDS011;9352;50.888;4.466;2022-09-28T03:50:54;4.68;;;2.92;;
18445;SDS011;9352;50.888;4.466;2022-09-28T03:53:22;7.35;;;3.30;;
18445;SDS011;9352;50.888;4.466;2022-09-28T03:55:49;6.78;;;3.13;;
18445;SDS011;9352;50.888;4.466;2022-09-28T03:58:17;8.32;;;3.20;;
18445;SDS011;9352;50.888;4.466;2022-09-28T04:00:45;5.68;;;2.63;;
18445;SDS011;9352;50.888;4.466;2022-09-28T04:03:11;6.35;;;3.20;;
18445;SDS011;9352;50.888;4.466;2022-09-28T04:05:38;8.15;;;3.33;;
18445;SDS011;9352;50.888;4.466;2022-09-28T04:08:15;5.63;;;3.30;;
18445;SDS011;9352;50.888;4.466;2022-09-28T04:10:41;3.85;;;3.15;;
18445;SDS011;9352;50.888;4.466;2022-09-28T04:13:08;15.95;;;4.03;;
18445;SDS011;9352;50.888;4.466;2022-09-28T04:15:35;7.45;;;2.97;;
18445;SDS011;9352;50.888;4.466;2022-09-28T04:18:02;6.07;;;3.03;;
18445;SDS011;9352;50.888;4.466;2022-09-28T04:20:30;5.22;;;3.03;;
18445;SDS011;9352;50.888;4.466;2022-09-28T04:22:57;8.20;;;3.20;;
18445;SDS011;9352;50.888;4.466;2022-09-28T04:25:25;5.55;;;3.13;;
18445;SDS011;9352;50.888;4.466;2022-09-28T04:27:52;8.13;;;3.13;;
18445;SDS011;9352;50.888;4.466;2022-09-28T04:30:36;8.05;;;2.95;;
18445;SDS011;9352;50.888;4.466;2022-09-28T04:33:03;6.80;;;3.35;;
18445;SDS011;9352;50.888;4.466;2022-09-28T04:35:30;5.43;;;3.15;;
18445;SDS011;9352;50.888;4.466;2022-09-28T04:37:57;5.75;;;3.35;;
18445;SDS011;9352;50.888;4.466;2022-09-28T04:40:25;5.80;;;3.20;;
18445;SDS011;9352;50.888;4.466;2022-09-28T04:42:52;5.05;;;3.80;;
18445;SDS011;9352;50.888;4.466;2022-09-28T04:45:20;5.72;;;3.63;;
18445;SDS011;9352;50.888;4.466;2022-09-28T04:47:50;7.60;;;3.72;;
18445;SDS011;9352;50.888;4.466;2022-09-28T04:50:17;4.10;;;3.65;;
18445;SDS011;9352;50.888;4.466;2022-09-28T04:52:44;11.70;;;3.85;;
18445;SDS011;9352;50.888;4.466;2022-09-28T04:55:11;4.30;;;3.80;;
18445;SDS011;9352;50.888;4.466;2022-09-28T04:57:39;5.75;;;3.72;;
18445;SDS011;9352;50.888;4.466;2022-09-28T05:00:09;8.63;;;3.72;;
18445;SDS011;9352;50.888;4.466;2022-09-28T05:02:37;7.10;;;4.20;;
18445;SDS011;9352;50.888;4.466;2022-09-28T05:05:04;7.60;;;3.90;;
18445;SDS011;9352;50.888;4.466;2022-09-28T05:07:31;8.73;;;4.22;;
18445;SDS011;9352;50.888;4.466;2022-09-28T05:09:58;4.55;;;3.03;;
18445;SDS011;9352;50.888;4.466;2022-09-28T05:12:25;7.30;;;4.68;;
18445;SDS011;9352;50.888;4.466;2022-09-28T05:14:53;10.32;;;4.53;;
18445;SDS011;9352;50.888;4.466;2022-09-28T05:17:20;6.47;;;4.40;;
18445;SDS011;9352;50.888;4.466;2022-09-28T05:19:48;12.15;;;4.70;;
18445;SDS011;9352;50.888;4.466;2022-09-28T05:22:17;11.18;;;5.00;;
18445;SDS011;9352;50.888;4.466;2022-09-28T05:24:44;7.13;;;4.38;;
18445;SDS011;9352;50.888;4.466;2022-09-28T05:27:11;7.28;;;5.05;;
18445;SDS011;9352;50.888;4.466;2022-09-28T05:29:38;10.27;;;5.30;;
18445;SDS011;9352;50.888;4.466;2022-09-28T05:32:06;13.23;;;5.28;;
18445;SDS011;9352;50.888;4.466;2022-09-28T05:34:33;8.95;;;5.20;;
18445;SDS011;9352;50.888;4.466;2022-09-28T05:37:01;12.85;;;5.90;;
18445;SDS011;9352;50.888;4.466;2022-09-28T05:39:27;11.38;;;5.88;;
18445;SDS011;9352;50.888;4.466;2022-09-28T05:41:54;13.60;;;6.60;;
18445;SDS011;9352;50.888;4.466;2022-09-28T05:44:21;15.85;;;6.55;;
18445;SDS011;9352;50.888;4.466;2022-09-28T05:46:51;13.18;;;6.35;;
18445;SDS011;9352;50.888;4.466;2022-09-28T05:49:20;14.75;;;6.85;;
18445;SDS011;9352;50.888;4.466;2022-09-28T05:51:46;13.85;;;7.35;;
18445;SDS011;9352;50.888;4.466;2022-09-28T05:54:13;13.60;;;7.55;;
18445;SDS011;9352;50.888;4.466;2022-09-28T05:56:40;13.18;;;6.95;;
18445;SDS011;9352;50.888;4.466;2022-09-28T05:59:07;20.00;;;8.30;;
18445;SDS011;9352;50.888;4.466;2022-09-28T06:01:34;19.98;;;8.43;;
18445;SDS011;9352;50.888;4.466;2022-09-28T06:04:01;18.48;;;8.32;;
18445;SDS011;9352;50.888;4.466;2022-09-28T06:06:30;20.95;;;8.63;;
18445;SDS011;9352;50.888;4.466;2022-09-28T06:08:56;18.20;;;9.43;;
18445;SDS011;9352;50.888;4.466;2022-09-28T06:11:23;17.95;;;9.68;;
18445;SDS011;9352;50.888;4.466;2022-09-28T06:13:51;31.25;;;10.88;;
18445;SDS011;9352;50.888;4.466;2022-09-28T06:16:19;26.30;;;11.57;;
18445;SDS011;9352;50.888;4.466;2022-09-28T06:18:46;23.60;;;11.27;;
18445;SDS011;9352;50.888;4.466;2022-09-28T06:21:13;25.77;;;14.00;;
18445;SDS011;9352;50.888;4.466;2022-09-28T06:23:42;27.67;;;13.23;;
18445;SDS011;9352;50.888;4.466;2022-09-28T06:26:09;29.92;;;14.40;;
18445;SDS011;9352;50.888;4.466;2022-09-28T06:28:35;35.85;;;14.82;;
18445;SDS011;9352;50.888;4.466;2022-09-28T06:31:02;30.67;;;14.02;;
18445;SDS011;9352;50.888;4.466;2022-09-28T06:33:29;29.63;;;13.70;;
18445;SDS011;9352;50.888;4.466;2022-09-28T06:35:57;25.05;;;13.25;;
18445;SDS011;9352;50.888;4.466;2022-09-28T06:38:27;25.67;;;12.25;;
18445;SDS011;9352;50.888;4.466;2022-09-28T06:40:57;23.58;;;12.85;;
18445;SDS011;9352;50.888;4.466;2022-09-28T06:43:24;19.55;;;11.50;;
18445;SDS011;9352;50.888;4.466;2022-09-28T06:45:52;20.63;;;11.20;;
18445;SDS011;9352;50.888;4.466;2022-09-28T06:48:19;24.55;;;11.18;;
18445;SDS011;9352;50.888;4.466;2022-09-28T06:50:46;18.45;;;10.77;;
18445;SDS011;9352;50.888;4.466;2022-09-28T06:53:15;19.70;;;10.98;;
18445;SDS011;9352;50.888;4.466;2022-09-28T06:55:42;18.15;;;10.90;;
18445;SDS011;9352;50.888;4.466;2022-09-28T06:58:14;15.88;;;9.00;;
18445;SDS011;9352;50.888;4.466;2022-09-28T07:00:43;14.23;;;8.52;;
18445;SDS011;9352;50.888;4.466;2022-09-28T07:03:12;10.35;;;8.10;;
18445;SDS011;9352;50.888;4.466;2022-09-28T07:05:40;18.60;;;8.68;;
18445;SDS011;9352;50.888;4.466;2022-09-28T07:08:08;19.23;;;8.90;;
18445;SDS011;9352;50.888;4.466;2022-09-28T07:10:39;21.30;;;9.23;;
18445;SDS011;9352;50.888;4.466;2022-09-28T07:13:07;16.55;;;8.85;;
18445;SDS011;9352;50.888;4.466;2022-09-28T07:15:35;17.67;;;9.52;;
18445;SDS011;9352;50.888;4.466;2022-09-28T07:18:03;18.08;;;9.35;;
18445;SDS011;9352;50.888;4.466;2022-09-28T07:20:30;24.15;;;9.05;;
18445;SDS011;9352;50.888;4.466;2022-09-28T07:22:58;17.67;;;9.55;;
18445;SDS011;9352;50.888;4.466;2022-09-28T07:25:27;23.48;;;9.25;;
18445;SDS011;9352;50.888;4.466;2022-09-28T07:27:55;21.90;;;9.20;;
18445;SDS011;9352;50.888;4.466;2022-09-28T07:30:24;23.80;;;8.93;;
18445;SDS011;9352;50.888;4.466;2022-09-28T07:32:53;20.15;;;10.07;;
18445;SDS011;9352;50.888;4.466;2022-09-28T07:35:20;18.20;;;8.77;;
18445;SDS011;9352;50.888;4.466;2022-09-28T07:37:47;18.20;;;9.02;;
18445;SDS011;9352;50.888;4.466;2022-09-28T07:40:14;16.00;;;8.60;;
18445;SDS011;9352;50.888;4.466;2022-09-28T07:43:02;19.65;;;8.57;;
18445;SDS011;9352;50.888;4.466;2022-09-28T07:45:29;19.08;;;8.45;;
18445;SDS011;9352;50.888;4.466;2022-09-28T07:48:01;14.88;;;7.35;;
18445;SDS011;9352;50.888;4.466;2022-09-28T07:50:28;15.93;;;8.77;;
18445;SDS011;9352;50.888;4.466;2022-09-28T07:52:56;19.98;;;7.57;;
18445;SDS011;9352;50.888;4.466;2022-09-28T07:55:24;14.10;;;7.25;;
18445;SDS011;9352;50.888;4.466;2022-09-28T07:57:54;21.08;;;8.63;;
18445;SDS011;9352;50.888;4.466;2022-09-28T08:00:25;28.42;;;9.60;;
18445;SDS011;9352;50.888;4.466;2022-09-28T08:02:52;16.38;;;7.15;;
18445;SDS011;9352;50.888;4.466;2022-09-28T08:05:21;18.92;;;7.10;;
18445;SDS011;9352;50.888;4.466;2022-09-28T08:07:47;17.95;;;7.90;;
18445;SDS011;9352;50.888;4.466;2022-09-28T08:10:14;18.50;;;7.55;;
18445;SDS011;9352;50.888;4.466;2022-09-28T08:12:42;18.42;;;8.00;;
18445;SDS011;9352;50.888;4.466;2022-09-28T08:15:10;13.50;;;7.07;;
18445;SDS011;9352;50.888;4.466;2022-09-28T08:17:37;11.35;;;6.13;;
18445;SDS011;9352;50.888;4.466;2022-09-28T08:20:04;14.68;;;5.95;;
18445;SDS011;9352;50.888;4.466;2022-09-28T08:22:50;20.08;;;7.13;;
18445;SDS011;9352;50.888;4.466;2022-09-28T08:25:17;17.25;;;6.13;;
18445;SDS011;9352;50.888;4.466;2022-09-28T08:27:45;12.52;;;6.15;;
18445;SDS011;9352;50.888;4.466;2022-09-28T08:30:12;11.35;;;6.15;;
18445;SDS011;9352;50.888;4.466;2022-09-28T08:32:43;14.25;;;5.68;;
18445;SDS011;9352;50.888;4.466;2022-09-28T08:35:11;11.85;;;4.38;;
18445;SDS011;9352;50.888;4.466;2022-09-28T08:37:39;8.65;;;4.35;;
18445;SDS011;9352;50.888;4.466;2022-09-28T08:40:09;8.82;;;3.67;;
18445;SDS011;9352;50.888;4.466;2022-09-28T08:42:43;10.65;;;3.65;;
18445;SDS011;9352;50.888;4.466;2022-09-28T08:45:11;10.77;;;4.00;;
18445;SDS011;9352;50.888;4.466;2022-09-28T08:47:45;10.07;;;3.70;;
18445;SDS011;9352;50.888;4.466;2022-09-28T08:50:34;10.57;;;3.78;;
18445;SDS011;9352;50.888;4.466;2022-09-28T08:53:11;10.30;;;3.67;;
18445;SDS011;9352;50.888;4.466;2022-09-28T08:55:50;7.95;;;3.30;;
18445;SDS011;9352;50.888;4.466;2022-09-28T08:58:19;9.05;;;3.58;;
18445;SDS011;9352;50.888;4.466;2022-09-28T09:00:49;6.97;;;3.60;;
18445;SDS011;9352;50.888;4.466;2022-09-28T09:03:19;18.13;;;4.13;;
18445;SDS011;9352;50.888;4.466;2022-09-28T09:05:51;12.13;;;4.35;;
18445;SDS011;9352;50.888;4.466;2022-09-28T09:08:31;10.15;;;4.32;;
18445;SDS011;9352;50.888;4.466;2022-09-28T09:11:12;9.60;;;4.30;;
18445;SDS011;9352;50.888;4.466;2022-09-28T09:13:52;7.43;;;4.10;;
18445;SDS011;9352;50.888;4.466;2022-09-28T09:16:35;8.02;;;4.05;;
18445;SDS011;9352;50.888;4.466;2022-09-28T09:19:13;8.43;;;3.60;;
18445;SDS011;9352;50.888;4.466;2022-09-28T09:21:44;12.48;;;4.35;;
18445;SDS011;9352;50.888;4.466;2022-09-28T09:24:17;12.32;;;3.80;;
18445;SDS011;9352;50.888;4.466;2022-09-28T09:26:54;15.73;;;4.78;;
18445;SDS011;9352;50.888;4.466;2022-09-28T09:29:32;10.63;;;4.10;;
18445;SDS011;9352;50.888;4.466;2022-09-28T09:32:25;8.35;;;3.40;;
18445;SDS011;9352;50.888;4.466;2022-09-28T09:35:13;11.25;;;3.28;;
18445;SDS011;9352;50.888;4.466;2022-09-28T09:38:00;5.22;;;2.75;;
18445;SDS011;9352;50.888;4.466;2022-09-28T09:40:45;10.88;;;2.75;;
18445;SDS011;9352;50.888;4.466;2022-09-28T09:43:29;6.25;;;2.85;;
18445;SDS011;9352;50.888;4.466;2022-09-28T09:46:09;5.82;;;2.35;;
18445;SDS011;9352;50.888;4.466;2022-09-28T09:48:43;8.38;;;2.75;;
18445;SDS011;9352;50.888;4.466;2022-09-28T09:51:17;3.90;;;1.80;;
18445;SDS011;9352;50.888;4.466;2022-09-28T09:53:50;4.53;;;1.92;;
18445;SDS011;9352;50.888;4.466;2022-09-28T09:56:25;4.22;;;1.98;;
18445;SDS011;9352;50.888;4.466;2022-09-28T09:58:58;8.35;;;2.42;;
18445;SDS011;9352;50.888;4.466;2022-09-28T10:01:31;5.22;;;2.00;;
18445;SDS011;9352;50.888;4.466;2022-09-28T10:04:01;6.72;;;2.13;;
18445;SDS011;9352;50.888;4.466;2022-09-28T10:06:30;4.68;;;2.22;;
18445;SDS011;9352;50.888;4.466;2022-09-28T10:09:00;6.15;;;2.97;;
18445;SDS011;9352;50.888;4.466;2022-09-28T10:11:30;5.43;;;1.98;;
18445;SDS011;9352;50.888;4.466;2022-09-28T10:14:02;7.80;;;2.28;;
18445;SDS011;9352;50.888;4.466;2022-09-28T10:16:29;7.80;;;2.47;;
18445;SDS011;9352;50.888;4.466;2022-09-28T10:18:58;3.95;;;2.15;;
18445;SDS011;9352;50.888;4.466;2022-09-28T10:21:26;4.10;;;2.22;;
18445;SDS011;9352;50.888;4.466;2022-09-28T10:23:54;6.47;;;2.00;;
18445;SDS011;9352;50.888;4.466;2022-09-28T10:26:23;2.55;;;1.85;;
18445;SDS011;9352;50.888;4.466;2022-09-28T10:28:54;7.97;;;1.73;;
18445;SDS011;9352;50.888;4.466;2022-09-28T10:31:35;3.72;;;2.00;;
18445;SDS011;9352;50.888;4.466;2022-09-28T10:34:04;8.18;;;1.63;;
18445;SDS011;9352;50.888;4.466;2022-09-28T10:36:32;4.72;;;1.73;;
18445;SDS011;9352;50.888;4.466;2022-09-28T10:39:20;4.40;;;1.80;;
18445;SDS011;9352;50.888;4.466;2022-09-28T10:41:52;5.38;;;2.00;;
18445;SDS011;9352;50.888;4.466;2022-09-28T10:44:21;2.28;;;1.50;;
18445;SDS011;9352;50.888;4.466;2022-09-28T10:46:55;11.85;;;1.40;;
18445;SDS011;9352;50.888;4.466;2022-09-28T10:49:25;4.72;;;1.65;;
18445;SDS011;9352;50.888;4.466;2022-09-28T10:51:53;1.88;;;1.33;;
18445;SDS011;9352;50.888;4.466;2022-09-28T10:54:21;3.92;;;1.35;;
18445;SDS011;9352;50.888;4.466;2022-09-28T10:56:50;7.75;;;3.45;;
18445;SDS011;9352;50.888;4.466;2022-09-28T10:59:21;6.32;;;1.65;;
18445;SDS011;9352;50.888;4.466;2022-09-28T11:01:52;10.88;;;2.20;;
18445;SDS011;9352;50.888;4.466;2022-09-28T11:04:23;5.13;;;1.60;;
18445;SDS011;9352;50.888;4.466;2022-09-28T11:06:55;5.40;;;1.55;;
18445;SDS011;9352;50.888;4.466;2022-09-28T11:09:25;2.95;;;1.45;;
18445;SDS011;9352;50.888;4.466;2022-09-28T11:11:54;5.53;;;1.65;;
18445;SDS011;9352;50.888;4.466;2022-09-28T11:14:24;6.38;;;1.42;;
18445;SDS011;9352;50.888;4.466;2022-09-28T11:17:16;2.58;;;1.50;;
18445;SDS011;9352;50.888;4.466;2022-09-28T11:19:51;11.30;;;1.65;;
18445;SDS011;9352;50.888;4.466;2022-09-28T11:22:19;6.00;;;1.40;;
18445;SDS011;9352;50.888;4.466;2022-09-28T11:24:47;5.80;;;1.30;;
18445;SDS011;9352;50.888;4.466;2022-09-28T11:27:20;2.38;;;1.40;;
18445;SDS011;9352;50.888;4.466;2022-09-28T11:29:51;5.88;;;1.48;;
18445;SDS011;9352;50.888;4.466;2022-09-28T11:32:23;2.65;;;1.38;;
18445;SDS011;9352;50.888;4.466;2022-09-28T11:34:56;6.10;;;1.80;;
18445;SDS011;9352;50.888;4.466;2022-09-28T11:37:31;2.58;;;1.50;;
18445;SDS011;9352;50.888;4.466;2022-09-28T11:40:14;4.63;;;1.50;;
18445;SDS011;9352;50.888;4.466;2022-09-28T11:42:53;4.22;;;1.30;;
18445;SDS011;9352;50.888;4.466;2022-09-28T11:45:35;3.83;;;1.60;;
18445;SDS011;9352;50.888;4.466;2022-09-28T11:48:12;9.77;;;1.58;;
18445;SDS011;9352;50.888;4.466;2022-09-28T11:50:44;3.42;;;1.42;;
18445;SDS011;9352;50.888;4.466;2022-09-28T11:53:21;5.80;;;1.85;;
18445;SDS011;9352;50.888;4.466;2022-09-28T11:55:53;2.47;;;1.20;;
18445;SDS011;9352;50.888;4.466;2022-09-28T11:58:26;3.10;;;1.70;;
18445;SDS011;9352;50.888;4.466;2022-09-28T12:00:58;1.67;;;1.30;;
18445;SDS011;9352;50.888;4.466;2022-09-28T12:03:32;2.70;;;1.38;;
18445;SDS011;9352;50.888;4.466;2022-09-28T12:06:10;4.20;;;1.83;;
18445;SDS011;9352;50.888;4.466;2022-09-28T12:08:42;3.75;;;1.40;;
18445;SDS011;9352;50.888;4.466;2022-09-28T12:11:16;7.22;;;2.38;;
18445;SDS011;9352;50.888;4.466;2022-09-28T12:13:47;4.05;;;1.70;;
18445;SDS011;9352;50.888;4.466;2022-09-28T12:16:18;5.45;;;1.90;;
18445;SDS011;9352;50.888;4.466;2022-09-28T12:18:51;4.00;;;1.60;;
18445;SDS011;9352;50.888;4.466;2022-09-28T12:21:32;5.10;;;1.75;;
18445;SDS011;9352;50.888;4.466;2022-09-28T12:24:03;4.07;;;1.77;;
18445;SDS011;9352;50.888;4.466;2022-09-28T12:26:38;4.88;;;2.15;;
18445;SDS011;9352;50.888;4.466;2022-09-28T12:29:10;4.85;;;1.30;;
18445;SDS011;9352;50.888;4.466;2022-09-28T12:31:43;3.40;;;1.05;;
18445;SDS011;9352;50.888;4.466;2022-09-28T12:34:19;1.45;;;1.20;;
18445;SDS011;9352;50.888;4.466;2022-09-28T12:36:50;2.03;;;1.33;;
18445;SDS011;9352;50.888;4.466;2022-09-28T12:39:32;1.42;;;1.30;;
18445;SDS011;9352;50.888;4.466;2022-09-28T12:42:12;3.00;;;1.60;;
18445;SDS011;9352;50.888;4.466;2022-09-28T12:44:53;3.83;;;1.67;;
18445;SDS011;9352;50.888;4.466;2022-09-28T12:47:37;4.05;;;1.95;;
18445;SDS011;9352;50.888;4.466;2022-09-28T12:50:16;2.90;;;1.20;;
18445;SDS011;9352;50.888;4.466;2022-09-28T12:52:51;1.75;;;1.10;;
18445;SDS011;9352;50.888;4.466;2022-09-28T12:55:34;2.40;;;1.40;;
18445;SDS011;9352;50.888;4.466;2022-09-28T12:58:17;5.10;;;1.35;;
18445;SDS011;9352;50.888;4.466;2022-09-28T13:00:57;3.00;;;1.20;;
18445;SDS011;9352;50.888;4.466;2022-09-28T13:03:55;3.50;;;1.20;;
18445;SDS011;9352;50.888;4.466;2022-09-28T13:06:39;6.13;;;1.25;;
18445;SDS011;9352;50.888;4.466;2022-09-28T13:09:17;1.77;;;1.30;;
18445;SDS011;9352;50.888;4.466;2022-09-28T13:11:53;4.15;;;1.42;;
18445;SDS011;9352;50.888;4.466;2022-09-28T13:14:34;3.03;;;1.20;;
18445;SDS011;9352;50.888;4.466;2022-09-28T13:17:23;2.55;;;1.17;;
18445;SDS011;9352;50.888;4.466;2022-09-28T13:20:03;3.67;;;1.65;;
18445;SDS011;9352;50.888;4.466;2022-09-28T13:22:43;6.47;;;1.45;;
18445;SDS011;9352;50.888;4.466;2022-09-28T13:25:18;2.33;;;1.40;;
18445;SDS011;9352;50.888;4.466;2022-09-28T13:27:49;3.63;;;1.30;;
18445;SDS011;9352;50.888;4.466;2022-09-28T13:30:20;3.10;;;1.50;;
18445;SDS011;9352;50.888;4.466;2022-09-28T13:32:47;5.93;;;3.42;;
18445;SDS011;9352;50.888;4.466;2022-09-28T13:35:16;10.65;;;3.70;;
18445;SDS011;9352;50.888;4.466;2022-09-28T13:37:44;3.63;;;2.10;;
18445;SDS011;9352;50.888;4.466;2022-09-28T13:40:12;2.85;;;1.23;;
18445;SDS011;9352;50.888;4.466;2022-09-28T13:45:45;4.38;;;1.60;;
18445;SDS011;9352;50.888;4.466;2022-09-28T13:48:19;1.88;;;1.08;;
18445;SDS011;9352;50.888;4.466;2022-09-28T13:50:55;3.95;;;1.55;;
18445;SDS011;9352;50.888;4.466;2022-09-28T13:54:02;1.88;;;1.10;;
18445;SDS011;9352;50.888;4.466;2022-09-28T13:56:43;3.15;;;1.30;;
18445;SDS011;9352;50.888;4.466;2022-09-28T13:59:19;3.20;;;1.27;;
18445;SDS011;9352;50.888;4.466;2022-09-28T14:01:51;2.40;;;1.30;;
18445;SDS011;9352;50.888;4.466;2022-09-28T14:04:23;2.78;;;1.73;;
18445;SDS011;9352;50.888;4.466;2022-09-28T14:07:15;5.65;;;1.70;;
18445;SDS011;9352;50.888;4.466;2022-09-28T14:09:47;7.68;;;1.90;;
18445;SDS011;9352;50.888;4.466;2022-09-28T14:12:43;3.10;;;1.73;;
18445;SDS011;9352;50.888;4.466;2022-09-28T14:21:01;4.70;;;1.90;;
18445;SDS011;9352;50.888;4.466;2022-09-28T14:23:57;12.85;;;1.90;;
18445;SDS011;9352;50.888;4.466;2022-09-28T14:26:41;5.50;;;2.10;;
18445;SDS011;9352;50.888;4.466;2022-09-28T14:29:43;6.68;;;2.28;;
18445;SDS011;9352;50.888;4.466;2022-09-28T14:32:22;6.60;;;2.40;;
18445;SDS011;9352;50.888;4.466;2022-09-28T14:34:54;5.88;;;1.90;;
18445;SDS011;9352;50.888;4.466;2022-09-28T14:37:25;4.97;;;1.77;;
18445;SDS011;9352;50.888;4.466;2022-09-28T14:40:15;3.88;;;1.58;;
18445;SDS011;9352;50.888;4.466;2022-09-28T14:43:20;6.15;;;1.88;;
18445;SDS011;9352;50.888;4.466;2022-09-28T14:45:50;3.35;;;1.30;;
18445;SDS011;9352;50.888;4.466;2022-09-28T14:48:57;2.10;;;1.20;;
18445;SDS011;9352;50.888;4.466;2022-09-28T14:54:38;2.20;;;1.70;;
18445;SDS011;9352;50.888;4.466;2022-09-28T14:57:17;3.25;;;1.40;;
18445;SDS011;9352;50.888;4.466;2022-09-28T14:59:47;4.15;;;1.40;;
18445;SDS011;9352;50.888;4.466;2022-09-28T15:02:24;2.00;;;1.80;;
18445;SDS011;9352;50.888;4.466;2022-09-28T15:04:58;4.28;;;1.30;;
18445;SDS011;9352;50.888;4.466;2022-09-28T15:07:43;1.95;;;1.05;;
18445;SDS011;9352;50.888;4.466;2022-09-28T15:10:22;1.58;;;1.02;;
18445;SDS011;9352;50.888;4.466;2022-09-28T15:12:52;2.25;;;1.20;;
18445;SDS011;9352;50.888;4.466;2022-09-28T15:15:24;1.92;;;1.20;;
18445;SDS011;9352;50.888;4.466;2022-09-28T15:17:58;3.65;;;1.20;;
18445;SDS011;9352;50.888;4.466;2022-09-28T15:20:40;2.70;;;1.20;;
18445;SDS011;9352;50.888;4.466;2022-09-28T15:23:22;1.65;;;1.10;;
18445;SDS011;9352;50.888;4.466;2022-09-28T15:25:51;1.67;;;1.20;;
18445;SDS011;9352;50.888;4.466;2022-09-28T15:28:18;5.40;;;1.40;;
18445;SDS011;9352;50.888;4.466;2022-09-28T15:30:47;1.88;;;1.15;;
18445;SDS011;9352;50.888;4.466;2022-09-28T15:33:22;2.22;;;1.40;;
18445;SDS011;9352;50.888;4.466;2022-09-28T15:36:11;1.73;;;1.27;;
18445;SDS011;9352;50.888;4.466;2022-09-28T15:38:44;4.63;;;1.30;;
18445;SDS011;9352;50.888;4.466;2022-09-28T15:41:16;3.75;;;1.20;;
18445;SDS011;9352;50.888;4.466;2022-09-28T15:43:43;7.15;;;1.80;;